Time;durP1;ratioP1;P1;durP2;ratioP2;P2;SDS_P1;SDS_P2;PMS_P1;PMS_P2;Temp;Humidity;BMP_temperature;BMP_pressure;BME280_temperature;BME280_humidity;BME280_pressure;Samples;Min_cycle;Max_cycle;Signal;HPM_P1;HPM_P2
2023/02/15 00:01:41;;;;;;;35.10;17.93;;;;;;;2.26;82.37;102072.05;1449138;89;21887;-80
2023/02/15 00:04:09;;;;;;;29.80;17.27;;;;;;;2.25;82.11;102072.96;1458874;89;21492;-80
2023/02/15 00:06:36;;;;;;;30.23;17.57;;;;;;;2.18;83.88;102068.84;1457869;89;21857;-80
2023/02/15 00:09:03;;;;;;;30.27;17.27;;;;;;;2.18;83.41;102070.15;1455725;89;21619;-80
2023/02/15 00:11:49;;;;;;;28.87;17.33;;;;;;;2.15;83.28;102063.73;1452042;89;22578;-79
2023/02/15 00:14:23;;;;;;;28.03;15.70;;;;;;;2.12;83.18;102065.14;1460807;89;21699;-79
2023/02/15 00:16:52;;;;;;;25.47;15.00;;;;;;;2.08;84.32;102066.63;1450051;89;21891;-80
2023/02/15 00:19:21;;;;;;;35.80;17.97;;;;;;;2.07;83.76;102057.06;1455854;89;22465;-80
2023/02/15 00:21:48;;;;;;;31.47;17.50;;;;;;;2.04;84.55;102065.85;1432469;91;21835;-80
2023/02/15 00:24:17;;;;;;;24.60;15.43;;;;;;;2.00;84.88;102059.05;1454942;89;21526;-81
2023/02/15 00:26:45;;;;;;;25.77;15.67;;;;;;;1.99;84.96;102059.96;1433189;91;21781;-79
2023/02/15 00:29:13;;;;;;;26.73;17.27;;;;;;;1.96;85.40;102062.68;1457202;89;22172;-79
2023/02/15 00:31:39;;;;;;;32.53;16.53;;;;;;;1.96;85.30;102057.45;1459553;89;21565;-80
2023/02/15 00:34:13;;;;;;;29.30;16.37;;;;;;;1.97;84.95;102060.45;1447153;89;21626;-80
2023/02/15 00:36:41;;;;;;;31.50;17.53;;;;;;;1.95;85.45;102058.34;1458622;89;21730;-80
2023/02/15 00:39:08;;;;;;;26.47;16.93;;;;;;;1.95;84.67;102059.19;1459689;89;22407;-80
2023/02/15 00:41:36;;;;;;;29.13;17.37;;;;;;;1.94;84.44;102052.73;1458462;89;21589;-80
2023/02/15 00:44:03;;;;;;;25.97;16.43;;;;;;;1.86;85.52;102055.59;1454314;89;21652;-78
2023/02/15 00:46:30;;;;;;;30.87;17.47;;;;;;;1.85;85.31;102047.37;1453556;89;22496;-80
2023/02/15 00:48:57;;;;;;;33.70;18.47;;;;;;;1.85;84.32;102043.91;1457010;89;21758;-80
2023/02/15 00:51:24;;;;;;;32.10;16.17;;;;;;;1.78;85.56;102035.41;1440450;91;21714;-79
2023/02/15 00:53:50;;;;;;;30.03;15.67;;;;;;;1.75;86.30;102035.52;1445496;89;21634;-80
2023/02/15 00:56:16;;;;;;;31.37;17.80;;;;;;;1.73;86.69;102029.52;1448882;89;21499;-81
2023/02/15 00:58:43;;;;;;;26.47;15.27;;;;;;;1.75;86.40;102030.30;1452404;89;21579;-80
2023/02/15 01:01:14;;;;;;;32.20;16.43;;;;;;;1.74;86.79;102032.06;1457325;89;21729;-81
2023/02/15 01:03:45;;;;;;;26.60;16.80;;;;;;;1.78;86.30;102032.80;1428185;91;21797;-80
2023/02/15 01:06:13;;;;;;;37.93;17.82;;;;;;;1.80;86.46;102030.54;1454850;89;22542;-80
2023/02/15 01:08:40;;;;;;;27.30;15.20;;;;;;;1.85;85.87;102026.94;1450371;89;21410;-80
2023/02/15 01:11:11;;;;;;;37.10;18.87;;;;;;;1.85;86.13;102029.55;1456238;89;22329;-78
2023/02/15 01:13:38;;;;;;;29.03;18.10;;;;;;;1.85;86.07;102023.02;1439241;91;22562;-79
2023/02/15 01:16:04;;;;;;;22.97;14.60;;;;;;;1.87;85.76;102012.05;1461054;89;21686;-80
2023/02/15 01:18:31;;;;;;;34.07;18.10;;;;;;;1.87;85.62;102009.02;1451834;89;21559;-81
2023/02/15 01:20:57;;;;;;;27.80;15.07;;;;;;;1.86;85.86;102010.36;1439235;91;22572;-80
2023/02/15 01:23:24;;;;;;;30.40;17.47;;;;;;;1.89;85.66;102002.41;1450594;89;21608;-80
2023/02/15 01:25:50;;;;;;;25.70;15.23;;;;;;;1.92;85.54;102012.30;1440764;91;22033;-79
2023/02/15 01:28:16;;;;;;;33.07;17.20;;;;;;;1.95;85.13;102017.86;1454212;89;21586;-80
2023/02/15 01:30:42;;;;;;;28.60;15.27;;;;;;;1.93;85.58;102010.56;1450673;89;21508;-81
2023/02/15 01:33:17;;;;;;;26.17;14.93;;;;;;;1.94;85.44;102007.03;1443521;89;21619;-80
2023/02/15 01:35:39;;;;;;;31.20;17.87;;;;;;;1.97;85.40;102004.31;1456386;89;21805;-80
2023/02/15 01:38:05;;;;;;;29.03;15.80;;;;;;;2.01;85.04;101995.45;1457040;89;21700;-80
2023/02/15 01:40:31;;;;;;;29.53;16.20;;;;;;;1.99;84.89;101997.28;1455884;89;22507;-81
2023/02/15 01:42:58;;;;;;;26.30;16.20;;;;;;;1.97;85.26;101999.09;1434061;91;21652;-79
2023/02/15 01:45:32;;;;;;;28.10;17.23;;;;;;;1.97;85.22;102005.62;1455059;89;21709;-81
2023/02/15 01:48:26;;;;;;;26.30;15.27;;;;;;;1.98;85.25;101990.34;1461126;89;21499;-81
2023/02/15 01:50:59;;;;;;;26.53;16.77;;;;;;;2.01;84.49;101993.72;1447824;91;21810;-81
2023/02/15 01:53:38;;;;;;;31.33;15.90;;;;;;;1.98;84.70;101989.03;1457280;89;22489;-81
2023/02/15 01:56:18;;;;;;;29.40;18.07;;;;;;;1.98;84.10;102001.62;1446943;91;22483;-81
2023/02/15 01:58:47;;;;;;;32.17;17.15;;;;;;;1.96;83.26;101993.48;1449596;89;21538;-82
2023/02/15 02:01:13;;;;;;;27.27;17.20;;;;;;;1.88;85.06;101999.41;1443061;91;22544;-80
2023/02/15 02:04:06;;;;;;;35.57;18.50;;;;;;;1.84;85.23;101989.97;1453914;89;21671;-80
2023/02/15 02:06:35;;;;;;;26.50;16.43;;;;;;;1.77;85.63;101978.44;1452094;89;21812;-79
2023/02/15 02:09:02;;;;;;;29.43;17.03;;;;;;;1.76;86.03;101975.44;1436182;91;21628;-80
2023/02/15 02:11:29;;;;;;;26.23;16.63;;;;;;;1.74;86.01;101974.62;1453580;89;21881;-80
2023/02/15 02:13:56;;;;;;;28.00;16.60;;;;;;;1.75;86.16;101975.47;1445355;89;22716;-81
2023/02/15 02:17:10;;;;;;;23.17;15.43;;;;;;;1.78;85.30;101982.77;1432788;91;21710;-80
2023/02/15 02:20:02;;;;;;;27.93;17.40;;;;;;;1.78;85.67;101988.42;1457486;89;21857;-81
2023/02/15 02:22:48;;;;;;;;;;;;;;;1.77;85.89;101990.19;1441176;91;21689;-80
2023/02/15 02:25:39;;;;;;;28.43;16.67;;;;;;;1.71;86.15;101985.17;1459511;89;20318;-81
2023/02/15 02:28:32;;;;;;;33.83;20.73;;;;;;;1.68;86.34;101987.05;1457837;89;21784;-80
2023/02/15 02:31:27;;;;;;;29.97;17.70;;;;;;;1.67;86.32;101977.06;1453058;89;21902;-78
2023/02/15 02:34:14;;;;;;;30.17;17.70;;;;;;;1.65;86.47;101967.58;1450148;89;21575;-79
2023/02/15 02:37:15;;;;;;;30.73;18.50;;;;;;;1.65;86.38;101973.65;1454146;89;21602;-81
2023/02/15 02:40:21;;;;;;;;;;;;;;;1.63;86.46;101974.14;1456938;89;21454;-81
2023/02/15 02:42:58;;;;;;;35.27;20.23;;;;;;;1.63;86.02;101981.12;1457842;89;20333;-81
2023/02/15 02:45:42;;;;;;;31.13;18.80;;;;;;;1.57;85.83;101982.19;1433941;91;22773;-81
2023/02/15 02:48:17;;;;;;;35.57;20.10;;;;;;;1.46;86.96;101973.41;1454300;89;21596;-81
2023/02/15 02:50:43;;;;;;;37.20;22.33;;;;;;;1.44;87.18;101971.74;1455096;89;21931;-81
2023/02/15 02:53:11;;;;;;;36.73;20.03;;;;;;;1.45;86.98;101974.78;1454981;89;21621;-81
2023/02/15 02:55:55;;;;;;;35.60;21.27;;;;;;;1.41;87.86;101982.28;1455601;89;21750;-81
2023/02/15 02:58:35;;;;;;;32.33;20.60;;;;;;;1.45;87.50;101981.30;1443232;91;21753;-81
2023/02/15 03:01:06;;;;;;;34.67;21.23;;;;;;;1.49;86.77;101986.80;1451933;89;21667;-81
2023/02/15 03:03:46;;;;;;;31.10;19.27;;;;;;;1.50;86.29;101984.16;1454630;89;22364;-81
2023/02/15 03:06:18;;;;;;;38.40;23.35;;;;;;;1.48;86.78;101989.87;1445967;89;21431;-81
2023/02/15 03:08:49;;;;;;;39.47;23.13;;;;;;;1.45;87.03;101993.89;1456612;89;21380;-81
2023/02/15 03:11:16;;;;;;;40.73;23.77;;;;;;;1.42;86.96;101998.36;1456451;89;21804;-81
2023/02/15 03:13:45;;;;;;;43.00;23.20;;;;;;;1.36;87.36;101995.50;1435905;89;21597;-81
2023/02/15 03:16:25;;;;;;;40.03;23.43;;;;;;;1.34;87.75;101990.31;1453458;89;21759;-81
2023/02/15 03:19:18;;;;;;;40.33;23.43;;;;;;;1.36;87.85;101996.80;1452331;89;21714;-81
2023/02/15 03:22:03;;;;;;;44.07;23.10;;;;;;;1.34;87.87;101994.23;1445410;89;21844;-80
2023/02/15 03:24:29;;;;;;;;;;;;;;;1.35;87.01;101997.69;1453854;89;21711;-81
2023/02/15 03:26:57;;;;;;;42.93;23.10;;;;;;;1.24;88.18;101995.45;1451995;89;20386;-82
2023/02/15 03:29:27;;;;;;;36.73;22.37;;;;;;;1.27;87.93;102001.02;1453709;89;22461;-82
2023/02/15 03:31:59;;;;;;;39.67;24.05;;;;;;;1.24;88.62;101999.82;1453260;89;21562;-80
2023/02/15 03:34:26;;;;;;;44.93;24.73;;;;;;;1.24;88.21;102001.97;1443191;90;22536;-81
2023/02/15 03:37:19;;;;;;;45.67;25.20;;;;;;;1.18;88.52;101999.56;1458161;89;21696;-81
2023/02/15 03:43:07;;;;;;;42.67;23.40;;;;;;;1.13;89.22;101991.02;1443552;91;22674;-82
2023/02/15 03:45:36;;;;;;;37.57;22.97;;;;;;;1.16;88.66;101993.53;1461405;89;22663;-81
2023/02/15 03:48:05;;;;;;;41.53;25.17;;;;;;;1.17;88.21;101996.53;1433338;91;21690;-81
2023/02/15 03:53:22;;;;;;;40.93;23.63;;;;;;;1.12;87.45;102008.86;1457839;89;21658;-81
2023/02/15 03:55:53;;;;;;;46.93;24.13;;;;;;;1.06;88.38;102009.90;1449878;89;21529;-82
2023/02/15 04:04:06;;;;;;;37.00;23.40;;;;;;;0.98;89.69;102008.43;1439146;91;21794;-79
2023/02/15 04:06:32;;;;;;;39.30;24.07;;;;;;;0.99;89.18;102008.86;1447388;89;22342;-80
2023/02/15 04:11:43;;;;;;;37.03;23.20;;;;;;;1.01;88.88;102017.49;1460232;89;21744;-80
2023/02/15 04:16:54;;;;;;;38.33;22.57;;;;;;;1.00;88.87;102020.98;1449736;89;21463;-80
2023/02/15 04:25:10;;;;;;;48.90;24.70;;;;;;;0.95;89.64;102018.95;1448579;89;21516;-82
2023/02/15 04:27:37;;;;;;;37.27;22.87;;;;;;;0.98;88.59;102016.25;1440550;91;21743;-80
2023/02/15 04:30:06;;;;;;;39.47;23.70;;;;;;;0.98;87.38;102011.04;1450105;89;21649;-81
2023/02/15 04:32:33;;;;;;;40.20;24.43;;;;;;;0.92;88.31;102012.53;1445133;91;21582;-82
2023/02/15 04:34:59;;;;;;;51.93;27.43;;;;;;;0.89;86.94;102013.05;1450079;89;21559;-79
2023/02/15 04:37:25;;;;;;;63.20;32.90;;;;;;;0.85;86.46;102016.64;1456544;89;21634;-80
2023/02/15 04:39:51;;;;;;;78.07;41.10;;;;;;;0.81;86.08;102015.49;1447823;89;21641;-81
2023/02/15 04:42:18;;;;;;;67.90;35.87;;;;;;;0.75;85.70;102017.83;1459199;89;22531;-81
2023/02/15 04:44:45;;;;;;;51.87;29.60;;;;;;;0.67;85.61;102021.11;1459341;89;21791;-81
2023/02/15 04:47:11;;;;;;;50.30;30.97;;;;;;;0.61;85.27;102023.90;1456232;89;21588;-81
2023/02/15 04:49:37;;;;;;;61.40;34.27;;;;;;;0.52;85.30;102022.84;1451894;89;22360;-81
2023/02/15 04:52:03;;;;;;;55.37;31.20;;;;;;;0.42;85.20;102017.89;1453828;89;21615;-79
2023/02/15 04:54:29;;;;;;;45.98;26.20;;;;;;;0.34;85.35;102017.25;1457018;89;21485;-79
2023/02/15 04:56:55;;;;;;;41.27;24.93;;;;;;;0.24;85.43;102017.13;1461686;89;22261;-80
2023/02/15 04:59:21;;;;;;;40.97;23.30;;;;;;;0.16;85.34;102025.59;1449902;89;21665;-80
2023/02/15 05:01:47;;;;;;;38.40;21.90;;;;;;;0.06;86.38;102027.59;1437276;89;21930;-79
2023/02/15 05:04:13;;;;;;;43.92;24.87;;;;;;;-0.02;86.00;102029.09;1450764;89;21976;-80
2023/02/15 05:06:40;;;;;;;42.43;25.17;;;;;;;-0.10;86.72;102028.89;1457335;89;22320;-80
2023/02/15 05:09:06;;;;;;;45.17;24.83;;;;;;;-0.18;86.93;102029.08;1443889;91;21390;-80
2023/02/15 05:11:32;;;;;;;49.83;26.75;;;;;;;-0.23;86.62;102027.06;1457192;89;21500;-81
2023/02/15 05:13:58;;;;;;;43.02;23.67;;;;;;;-0.26;86.69;102032.31;1449236;89;21910;-80
2023/02/15 05:16:27;;;;;;;54.35;25.12;;;;;;;-0.30;86.82;102034.60;1437547;91;21361;-81
2023/02/15 05:18:53;;;;;;;42.67;24.72;;;;;;;-0.33;86.46;102035.98;1450157;89;22375;-81
2023/02/15 05:21:20;;;;;;;44.27;25.57;;;;;;;-0.41;86.55;102036.16;1455746;89;22511;-80
2023/02/15 05:23:46;;;;;;;51.68;29.02;;;;;;;-0.49;86.64;102041.58;1437372;91;21464;-80
2023/02/15 05:29:03;;;;;;;50.55;29.32;;;;;;;-0.56;86.91;102037.40;1452627;89;21387;-80
2023/02/15 05:31:31;;;;;;;40.70;26.27;;;;;;;-0.58;87.28;102040.92;1417050;91;22291;-80
2023/02/15 05:33:57;;;;;;;47.83;27.67;;;;;;;-0.60;87.22;102039.67;1455021;89;21454;-80
2023/02/15 05:36:24;;;;;;;54.80;31.00;;;;;;;-0.61;87.36;102046.20;1449404;89;21402;-80
2023/02/15 05:38:50;;;;;;;48.50;27.32;;;;;;;-0.63;87.74;102044.95;1455845;89;21409;-80
2023/02/15 05:41:16;;;;;;;50.75;28.83;;;;;;;-0.64;87.97;102046.27;1442506;91;21301;-81
2023/02/15 05:43:43;;;;;;;60.48;31.05;;;;;;;-0.64;88.18;102047.13;1454822;89;21402;-80
2023/02/15 05:46:10;;;;;;;45.67;27.13;;;;;;;-0.62;87.53;102050.55;1440239;91;21427;-80
2023/02/15 05:48:36;;;;;;;43.83;25.23;;;;;;;-0.62;87.74;102051.00;1449315;89;22246;-80
2023/02/15 05:51:11;;;;;;;48.40;26.68;;;;;;;-0.60;87.73;102055.73;1448915;89;22260;-80
2023/02/15 05:53:39;;;;;;;47.90;24.57;;;;;;;-0.59;87.99;102056.98;1460851;89;21506;-78
2023/02/15 05:56:08;;;;;;;47.00;27.95;;;;;;;-0.59;87.59;102055.67;1461334;89;21423;-80
2023/02/15 05:58:38;;;;;;;50.20;27.77;;;;;;;-0.63;87.67;102055.35;1461791;89;21586;-81
2023/02/15 06:01:15;;;;;;;45.15;25.80;;;;;;;-0.64;87.46;102063.17;1454273;89;21808;-80
2023/02/15 06:03:42;;;;;;;48.23;27.32;;;;;;;-0.62;87.36;102067.91;1438524;91;21487;-79
2023/02/15 06:06:08;;;;;;;50.92;27.75;;;;;;;-0.60;87.57;102063.08;1452957;89;21512;-78
2023/02/15 06:08:37;;;;;;;50.83;28.25;;;;;;;-0.57;87.67;102063.00;1443235;91;21628;-82
2023/02/15 06:11:05;;;;;;;48.20;27.77;;;;;;;-0.54;87.95;102065.98;1459608;89;21447;-82
2023/02/15 06:13:32;;;;;;;50.67;27.82;;;;;;;-0.50;87.66;102074.95;1437337;91;22316;-82
2023/02/15 06:16:00;;;;;;;56.23;29.20;;;;;;;-0.44;87.93;102079.61;1453145;89;21534;-82
2023/02/15 06:18:27;;;;;;;53.20;28.80;;;;;;;-0.40;87.89;102081.23;1453088;89;22488;-84
2023/02/15 06:20:53;;;;;;;50.45;27.85;;;;;;;-0.33;88.12;102085.41;1454573;89;21403;-84
2023/02/15 06:23:19;;;;;;;57.98;27.67;;;;;;;-0.28;87.92;102079.66;1417319;91;21925;-84
2023/02/15 06:25:46;;;;;;;62.15;27.58;;;;;;;-0.21;87.93;102083.80;1450059;89;21528;-84
2023/02/15 06:28:13;;;;;;;49.48;27.45;;;;;;;-0.10;87.99;102083.55;1441361;91;21397;-84
2023/02/15 06:30:39;;;;;;;52.67;25.50;;;;;;;-0.01;88.09;102079.41;1450541;89;21565;-83
2023/02/15 06:33:05;;;;;;;49.67;30.48;;;;;;;0.10;87.87;102085.64;1458293;89;21356;-83
2023/02/15 06:35:33;;;;;;;52.73;28.25;;;;;;;0.16;87.76;102082.88;1438722;91;21331;-84
2023/02/15 06:37:59;;;;;;;45.52;27.00;;;;;;;0.27;87.85;102091.26;1454320;89;21513;-83
2023/02/15 06:40:27;;;;;;;45.20;27.10;;;;;;;0.35;87.80;102095.81;1452421;89;21794;-84
2023/02/15 06:42:53;;;;;;;45.17;25.90;;;;;;;0.44;87.74;102100.77;1459886;89;21640;-84
2023/02/15 06:45:20;;;;;;;42.63;27.57;;;;;;;0.55;87.71;102098.34;1436713;91;22388;-83
2023/02/15 06:47:46;;;;;;;52.73;25.87;;;;;;;0.66;87.65;102094.53;1450242;89;21648;-84
2023/02/15 06:50:12;;;;;;;51.83;26.97;;;;;;;0.76;87.65;102087.29;1450328;89;22160;-83
2023/02/15 06:52:38;;;;;;;47.00;24.37;;;;;;;0.90;87.49;102089.05;1453113;89;22400;-84
2023/02/15 06:55:06;;;;;;;54.97;26.53;;;;;;;0.98;87.30;102095.35;1419405;91;21662;-85
2023/02/15 06:57:33;;;;;;;45.23;27.67;;;;;;;1.08;87.11;102092.01;1441592;89;22652;-84
2023/02/15 06:59:59;;;;;;;42.57;25.87;;;;;;;1.18;87.01;102089.54;1453278;89;21596;-83
2023/02/15 07:02:26;;;;;;;44.70;24.57;;;;;;;1.27;86.94;102091.02;1455906;89;22416;-84
2023/02/15 07:04:52;;;;;;;46.10;24.40;;;;;;;1.37;87.27;102091.57;1453953;89;21613;-83
2023/02/15 07:07:18;;;;;;;41.40;25.73;;;;;;;1.46;87.10;102096.49;1441893;89;21648;-84
2023/02/15 07:09:44;;;;;;;43.77;25.87;;;;;;;1.52;86.87;102094.53;1444164;91;21546;-84
2023/02/15 07:14:55;;;;;;;40.40;25.17;;;;;;;1.69;86.12;102096.61;1459892;89;21724;-86
2023/02/15 07:17:22;;;;;;;45.33;25.90;;;;;;;1.83;85.81;102096.62;1455186;89;21789;-84
2023/02/15 07:19:48;;;;;;;43.23;27.23;;;;;;;1.95;85.43;102099.66;1448077;89;21746;-83
2023/02/15 07:22:14;;;;;;;44.33;26.77;;;;;;;2.05;85.09;102095.00;1435105;89;21685;-84
2023/02/15 07:24:40;;;;;;;44.10;25.87;;;;;;;2.14;84.74;102089.46;1442926;91;21660;-84
2023/02/15 07:27:09;;;;;;;46.27;25.83;;;;;;;2.26;84.47;102095.55;1454171;89;21639;-84
2023/02/15 07:29:35;;;;;;;44.70;27.53;;;;;;;2.35;83.71;102089.16;1430570;89;22822;-84
2023/02/15 07:32:01;;;;;;;36.03;21.97;;;;;;;2.56;84.31;102095.83;1439817;89;21597;-84
2023/02/15 07:34:28;;;;;;;37.70;25.27;;;;;;;2.71;83.38;102084.84;1456371;89;21648;-84
2023/02/15 07:36:54;;;;;;;42.90;25.27;;;;;;;2.91;83.69;102082.78;1440344;91;21666;-84
2023/02/15 07:39:20;;;;;;;39.83;25.67;;;;;;;3.08;83.26;102085.61;1458140;89;22714;-84
2023/02/15 07:41:46;;;;;;;42.00;26.53;;;;;;;3.20;78.46;102083.44;1436317;91;21728;-84
2023/02/15 07:44:14;;;;;;;47.27;25.57;;;;;;;3.20;78.46;102083.44;1454985;89;21873;-83
2023/02/15 07:46:41;;;;;;;46.30;27.47;;;;;;;3.31;78.94;102081.22;1450853;89;21899;-84
2023/02/15 07:49:07;;;;;;;46.40;26.57;;;;;;;3.31;78.07;102078.61;1456123;89;21943;-81
2023/02/15 07:51:34;;;;;;;41.53;24.90;;;;;;;3.38;77.81;102080.08;1453038;89;21878;-82
2023/02/15 07:54:00;;;;;;;42.30;26.23;;;;;;;3.40;76.82;102076.95;1461904;89;22038;-84
2023/02/15 07:56:26;;;;;;;46.30;25.83;;;;;;;3.57;77.55;102083.68;1457313;89;22076;-83
2023/02/15 07:58:53;;;;;;;41.90;25.63;;;;;;;3.60;77.00;102078.31;1453507;89;21974;-84
2023/02/15 08:01:31;;;;;;;37.07;21.97;;;;;;;3.82;75.18;102079.57;1438396;91;22077;-83
2023/02/15 08:03:58;;;;;;;34.87;22.93;;;;;;;3.82;75.18;102079.57;1452011;89;22097;-83
2023/02/15 08:06:28;;;;;;;29.70;19.27;;;;;;;3.92;74.15;102071.36;1452853;89;22214;-85
2023/02/15 08:08:54;;;;;;;32.67;20.63;;;;;;;3.92;74.15;102071.36;1436834;91;22137;-83
2023/02/15 08:11:28;;;;;;;34.83;22.00;;;;;;;3.84;73.63;102076.91;1454923;89;22189;-82
2023/02/15 08:14:04;;;;;;;37.40;22.47;;;;;;;4.03;74.15;102071.30;1459461;89;22117;-82
2023/02/15 08:16:53;;;;;;;34.70;21.13;;;;;;;4.03;74.00;102064.74;1454219;89;22111;-82
2023/02/15 08:19:26;;;;;;;31.33;19.57;;;;;;;4.21;73.83;102063.09;1452327;89;23166;-83
2023/02/15 08:21:57;;;;;;;41.57;21.50;;;;;;;4.36;74.06;102065.50;1435342;91;22085;-82
2023/02/15 08:24:28;;;;;;;38.20;20.65;;;;;;;4.44;72.42;102054.22;1454936;89;22164;-93
2023/02/15 08:26:55;;;;;;;34.95;20.45;;;;;;;4.56;72.32;102054.59;1455804;89;21439;-94
2023/02/15 08:29:25;;;;;;;32.90;20.47;;;;;;;4.62;72.33;102053.00;1453111;89;21558;-92
2023/02/15 08:32:08;;;;;;;34.37;22.13;;;;;;;4.54;71.31;102054.64;1458889;89;22101;-90
2023/02/15 08:34:39;;;;;;;32.83;20.43;;;;;;;4.70;72.06;102050.88;1447937;89;22378;-92
2023/02/15 08:37:06;;;;;;;30.17;18.97;;;;;;;4.75;70.93;102047.59;1457792;89;22304;-89
2023/02/15 08:39:32;;;;;;;35.23;21.13;;;;;;;5.01;71.70;102048.16;1456927;89;21403;-91
2023/02/15 08:41:59;;;;;;;27.13;18.87;;;;;;;5.01;71.70;102048.16;1436715;91;21531;-88
2023/02/15 08:44:25;;;;;;;32.37;20.73;;;;;;;5.09;70.23;102053.44;1456227;89;22268;-90
2023/02/15 08:46:51;;;;;;;35.83;20.63;;;;;;;5.29;71.05;102051.14;1456723;89;21417;-88
2023/02/15 08:49:21;;;;;;;28.47;19.73;;;;;;;5.36;69.51;102049.94;1456193;89;21483;-92
2023/02/15 08:51:49;;;;;;;31.03;19.37;;;;;;;5.42;69.16;102048.80;1415589;91;22264;-88
2023/02/15 08:54:20;;;;;;;33.47;20.27;;;;;;;5.47;67.67;102054.68;1456225;89;21380;-80
2023/02/15 08:56:46;;;;;;;28.45;18.30;;;;;;;5.54;68.84;102052.12;1438512;91;22299;-81
2023/02/15 08:59:17;;;;;;;31.63;21.53;;;;;;;5.61;67.42;102053.98;1449375;89;22459;-80
2023/02/15 09:01:45;;;;;;;27.57;18.80;;;;;;;5.68;67.85;102060.64;1442300;91;21623;-77
2023/02/15 09:04:12;;;;;;;29.97;19.83;;;;;;;5.89;66.67;102051.67;1456587;89;21365;-78
2023/02/15 09:06:41;;;;;;;33.87;21.60;;;;;;;5.90;67.35;102057.80;1424669;91;22614;-79
2023/02/15 09:09:08;;;;;;;26.57;17.93;;;;;;;6.10;67.74;102054.19;1457889;89;21387;-79
2023/02/15 09:11:42;;;;;;;27.10;17.73;;;;;;;6.30;66.44;102055.32;1444236;89;22547;-77
2023/02/15 09:14:16;;;;;;;27.93;19.33;;;;;;;6.44;64.98;102049.31;1438927;91;21449;-80
2023/02/15 09:16:48;;;;;;;31.27;20.30;;;;;;;6.65;64.85;102046.02;1446480;89;21365;-80
2023/02/15 09:19:17;;;;;;;32.20;18.73;;;;;;;6.87;65.98;102048.31;1466523;89;21410;-79
2023/02/15 09:21:43;;;;;;;30.07;17.90;;;;;;;7.01;64.47;102042.30;1451096;89;21402;-79
2023/02/15 09:24:12;;;;;;;26.97;17.30;;;;;;;7.16;63.56;102053.31;1449548;89;21427;-79
2023/02/15 09:26:43;;;;;;;23.67;14.40;;;;;;;7.23;61.54;102053.33;1451772;89;22378;-80
2023/02/15 09:29:10;;;;;;;24.02;16.45;;;;;;;7.38;60.70;102052.08;1457103;89;21336;-79
2023/02/15 09:31:44;;;;;;;25.20;16.77;;;;;;;7.66;60.69;102053.52;1456935;89;22290;-80
2023/02/15 09:34:13;;;;;;;28.70;16.97;;;;;;;7.74;58.35;102056.16;1453708;89;21624;-80
2023/02/15 09:36:41;;;;;;;23.47;15.80;;;;;;;8.45;60.19;102056.31;1433422;90;21471;-79
2023/02/15 09:39:23;;;;;;;24.70;15.77;;;;;;;8.55;56.05;102053.50;1451816;89;21321;-80
2023/02/15 09:42:13;;;;;;;29.40;17.67;;;;;;;9.30;56.93;102049.69;1445170;89;22281;-79
2023/02/15 09:44:56;;;;;;;19.87;15.47;;;;;;;9.99;52.48;102045.10;1447024;89;21416;-80
2023/02/15 09:48:08;;;;;;;21.60;16.73;;;;;;;10.14;49.37;102048.86;1461340;89;21572;-78
2023/02/15 09:50:46;;;;;;;23.17;17.03;;;;;;;11.20;53.22;102044.04;1454273;89;21350;-78
2023/02/15 09:53:52;;;;;;;23.43;16.60;;;;;;;12.06;52.61;102029.67;1449194;89;21351;-84
2023/02/15 09:56:37;;;;;;;23.80;18.37;;;;;;;12.35;47.51;102031.39;1432697;90;21492;-81
2023/02/15 09:59:13;;;;;;;23.90;17.47;;;;;;;12.48;45.50;102021.96;1448068;89;21510;-83
2023/02/15 10:02:35;;;;;;;21.80;17.27;;;;;;;12.71;43.90;102018.80;1444932;91;21596;-83
2023/02/15 10:05:59;;;;;;;22.63;18.13;;;;;;;12.11;43.40;102013.37;1458263;89;21388;-79
2023/02/15 10:08:39;;;;;;;25.47;18.97;;;;;;;11.94;43.27;102012.05;1453204;89;21683;-81
2023/02/15 10:11:41;;;;;;;21.40;16.77;;;;;;;12.46;47.45;102001.80;1454283;89;21580;-87
2023/02/15 10:14:29;;;;;;;25.77;20.07;;;;;;;11.79;44.49;102005.22;1436660;91;21413;-92
2023/02/15 10:17:16;;;;;;;24.10;19.30;;;;;;;12.77;47.54;101994.89;1452360;89;21447;-91
2023/02/15 10:20:05;;;;;;;23.43;19.13;;;;;;;13.25;47.37;101998.51;1446684;90;21368;-87
2023/02/15 10:22:39;;;;;;;25.93;19.17;;;;;;;13.17;45.65;101992.97;1452863;89;21424;-89
2023/02/15 10:25:30;;;;;;;116.57;67.67;;;;;;;13.40;45.07;101987.95;1454312;89;21447;-88
2023/02/15 10:28:06;;;;;;;39.73;31.50;;;;;;;13.51;45.33;101985.73;1453935;89;21329;-87
2023/02/15 10:30:50;;;;;;;28.13;20.60;;;;;;;13.95;45.51;101981.10;1457625;89;21549;-86
2023/02/15 10:33:40;;;;;;;63.87;41.57;;;;;;;14.30;45.00;101975.86;1438662;91;21317;-88
2023/02/15 10:36:21;;;;;;;69.50;47.63;;;;;;;14.35;44.27;101977.15;1459440;89;21584;-87
2023/02/15 10:38:52;;;;;;;38.63;28.63;;;;;;;14.51;43.65;101974.48;1451442;89;21431;-87
2023/02/15 10:41:49;;;;;;;24.13;21.03;;;;;;;14.40;43.37;101976.27;1454065;89;21987;-87
2023/02/15 10:44:40;;;;;;;27.40;19.87;;;;;;;14.56;43.50;101970.97;1454703;89;21425;-87
2023/02/15 10:47:14;;;;;;;39.27;21.93;;;;;;;14.95;43.82;101968.36;1461934;89;21424;-87
2023/02/15 10:50:26;;;;;;;26.65;18.77;;;;;;;14.93;39.47;101963.16;1449073;89;21600;-84
2023/02/15 10:53:14;;;;;;;33.67;18.30;;;;;;;13.41;40.34;101974.19;1458272;89;21299;-86
2023/02/15 10:55:58;;;;;;;26.53;18.83;;;;;;;13.31;43.12;101975.42;1449056;89;21410;-86
2023/02/15 10:58:54;;;;;;;24.97;18.87;;;;;;;13.03;42.17;101965.73;1449915;89;21483;-82
2023/02/15 11:01:49;;;;;;;35.80;19.20;;;;;;;12.96;43.97;101954.39;1448001;89;21513;-84
2023/02/15 11:04:54;;;;;;;25.10;20.60;;;;;;;12.80;44.19;101957.45;1456746;89;22268;-84
2023/02/15 11:07:39;;;;;;;30.50;18.00;;;;;;;12.75;44.41;101953.85;1438181;91;21523;-86
2023/02/15 11:10:19;;;;;;;28.37;19.23;;;;;;;12.40;43.31;101955.37;1457170;89;23187;-86
2023/02/15 11:12:47;;;;;;;27.58;20.12;;;;;;;12.08;44.45;101952.58;1432989;91;21587;-85
2023/02/15 11:15:21;;;;;;;31.97;21.77;;;;;;;12.21;44.00;101948.50;1457059;89;21395;-87
2023/02/15 11:17:58;;;;;;;28.53;20.17;;;;;;;12.42;44.69;101946.77;1458928;89;22485;-87
2023/02/15 11:20:57;;;;;;;25.17;19.43;;;;;;;12.94;44.59;101951.01;1457596;89;22386;-86
2023/02/15 11:23:25;;;;;;;26.63;19.67;;;;;;;13.41;43.74;101943.61;1441570;89;21863;-87
2023/02/15 11:26:05;;;;;;;22.73;17.77;;;;;;;13.23;41.67;101943.28;1454660;89;21473;-86
2023/02/15 11:28:54;;;;;;;24.40;19.00;;;;;;;12.64;42.32;101944.09;1453593;89;21343;-86
2023/02/15 11:31:25;;;;;;;25.97;18.27;;;;;;;12.48;43.43;101939.64;1456871;89;21498;-85
2023/02/15 11:34:05;;;;;;;24.70;18.10;;;;;;;11.75;43.74;101946.26;1453449;89;22132;-86
2023/02/15 11:36:39;;;;;;;30.57;21.82;;;;;;;11.54;44.13;101948.75;1457843;89;21572;-85
2023/02/15 11:39:16;;;;;;;23.87;19.80;;;;;;;12.05;45.41;101937.73;1452544;89;22044;-87
2023/02/15 11:41:51;;;;;;;24.73;17.90;;;;;;;11.69;43.49;101936.96;1456753;89;21299;-86
2023/02/15 11:44:32;;;;;;;23.53;19.03;;;;;;;12.05;44.17;101931.10;1438604;91;21553;-86
2023/02/15 11:47:00;;;;;;;28.30;20.37;;;;;;;12.07;44.66;101923.88;1447095;89;22290;-85
2023/02/15 11:49:33;;;;;;;21.50;16.77;;;;;;;12.03;44.91;101926.42;1453756;89;21461;-87
2023/02/15 11:52:05;;;;;;;25.60;18.83;;;;;;;12.05;43.13;101923.14;1437250;91;21390;-85
2023/02/15 11:54:35;;;;;;;25.93;19.63;;;;;;;12.32;43.85;101928.09;1449236;89;21594;-83
2023/02/15 11:57:05;;;;;;;;;;;;;;;12.50;44.64;101923.60;1454639;89;22426;-84
2023/02/15 11:59:36;;;;;;;31.63;18.77;;;;;;;12.18;43.58;101925.20;1452758;89;20386;-85
2023/02/15 12:02:05;;;;;;;24.93;19.63;;;;;;;12.25;43.60;101924.70;1461778;89;22266;-84
2023/02/15 12:04:39;;;;;;;25.27;18.93;;;;;;;12.13;43.58;101918.08;1436018;90;22372;-84
2023/02/15 12:07:17;;;;;;;24.90;19.87;;;;;;;12.22;44.22;101915.66;1457250;89;21506;-85
2023/02/15 12:10:11;;;;;;;23.80;19.13;;;;;;;12.06;44.54;101920.88;1457852;89;21446;-84
2023/02/15 12:12:36;;;;;;;25.03;19.23;;;;;;;12.31;43.56;101909.13;1454709;89;21387;-85